RJCC/CTS METAR and TAF weather

Enter ICAO airport designator
Station Type Date Time Source
RJCC METAR 2020/01/27 13:30 UTC NOAA

RJCC 271330Z 31006KT 9999 FEW025 M09/M11 Q1028


Station Type Date Time Source
RJCC Decoded METAR 2020/01/27 13:30 UTC NOAA

Chitose Ab, Japan (RJCC) 42-48N 141-40E 30M
Jan 27, 2020 - 08:30 AM EST / 2020.01.27 1330 UTC
Wind: from the NW (310 degrees) at 7 MPH (6 KT):0
Visibility: greater than 7 mile(s):0
Sky conditions: mostly clear
Temperature: 15 F (-9 C)
Windchill: 5 F (-15 C):1
Dew Point: 12 F (-11 C)
Relative Humidity: 85%
Pressure (altimeter): 30.36 in. Hg (1028 hPa)
ob: RJCC 271330Z 31006KT 9999 FEW025 M09/M11 Q1028
cycle: 13

Station Type Date Time Source
RJCC TAF 2020/01/27 12:30 UTC NOAA

TAF RJCC 271105Z 2712/2818 34005KT 9999 FEW020
BECMG 2722/2800 18010KT

Example: see airport list